Time;durP1;ratioP1;P1;durP2;ratioP2;P2;SDS_P1;SDS_P2;PMS_P1;PMS_P2;Temp;Humidity;BMP_temperature;BMP_pressure;BME280_temperature;BME280_humidity;BME280_pressure;Samples;Min_cycle;Max_cycle;Signal;HPM_P1;HPM_P2
2023/05/11 00:03:46;;;;;;;1.30;0.50;;;;;;;14.84;65.94;99912.06;10165205;28;20059;-70
2023/05/11 00:08:48;;;;;;;2.05;0.63;;;;;;;14.68;66.77;99914.66;10169085;28;20058;-70
2023/05/11 00:13:49;;;;;;;2.25;0.70;;;;;;;14.54;67.96;99916.03;10174379;28;20056;-71
2023/05/11 00:18:51;;;;;;;2.35;0.80;;;;;;;14.47;67.51;99907.81;10172984;28;20500;-74
2023/05/11 00:23:52;;;;;;;1.00;0.50;;;;;;;14.49;67.30;99908.47;10166789;28;20051;-70
2023/05/11 00:28:54;;;;;;;1.40;0.60;;;;;;;14.55;67.65;99900.84;10168840;28;20044;-71
2023/05/11 00:33:55;;;;;;;1.60;0.50;;;;;;;14.54;67.04;99909.84;10168797;28;20086;-70
2023/05/11 00:38:56;;;;;;;3.10;1.60;;;;;;;14.46;67.06;99902.63;10174764;28;20051;-72
2023/05/11 00:43:58;;;;;;;1.00;0.65;;;;;;;14.47;67.59;99909.63;10185417;28;20082;-71
2023/05/11 00:48:59;;;;;;;2.33;0.70;;;;;;;14.47;68.22;99905.13;10172578;29;20149;-72
2023/05/11 00:54:01;;;;;;;1.70;0.73;;;;;;;14.47;68.28;99894.41;10163390;28;20138;-70
2023/05/11 00:59:03;;;;;;;1.77;0.80;;;;;;;14.44;68.52;99899.22;10161708;28;20051;-73
2023/05/11 01:04:05;;;;;;;1.20;0.50;;;;;;;14.45;67.66;99901.75;10168712;28;20059;-71
2023/05/11 01:09:26;;;;;;;1.33;0.80;;;;;;;14.49;68.42;99903.13;10160567;28;20609;-71
2023/05/11 01:15:05;;;;;;;1.65;0.80;;;;;;;14.44;67.63;99904.59;10162696;29;20032;-75
2023/05/11 01:20:15;;;;;;;1.17;0.80;;;;;;;14.33;67.45;99897.66;10171235;28;20055;-76
2023/05/11 01:25:26;;;;;;;2.08;0.80;;;;;;;14.30;68.75;99903.31;10217645;28;20040;-70
2023/05/11 01:30:38;;;;;;;3.33;0.80;;;;;;;14.31;68.28;99887.09;10175350;28;20143;-70
2023/05/11 01:35:49;;;;;;;1.73;0.80;;;;;;;14.24;68.31;99885.22;10159755;28;20079;-75
2023/05/11 01:40:55;;;;;;;1.10;0.80;;;;;;;14.22;68.66;99897.94;10166344;28;20051;-73
2023/05/11 01:46:00;;;;;;;3.22;0.77;;;;;;;14.19;68.25;99899.06;10165570;28;20075;-72
2023/05/11 01:51:03;;;;;;;2.17;0.90;;;;;;;14.12;68.19;99906.88;10168460;28;20052;-73
2023/05/11 01:56:06;;;;;;;1.23;0.60;;;;;;;14.09;69.29;99901.81;10181192;28;20051;-73
2023/05/11 02:01:09;;;;;;;2.25;0.80;;;;;;;14.09;69.72;99907.19;10166011;28;20071;-73
2023/05/11 02:06:14;;;;;;;1.87;0.70;;;;;;;14.08;69.58;99905.50;10164964;28;20047;-74
2023/05/11 02:11:17;;;;;;;3.45;0.90;;;;;;;14.03;68.90;99910.47;10163813;29;20428;-72
2023/05/11 02:16:19;;;;;;;1.73;0.60;;;;;;;13.88;70.12;99907.50;10172537;28;20073;-72
2023/05/11 02:21:21;;;;;;;2.30;0.85;;;;;;;13.83;70.40;99908.97;10169890;28;20127;-73
2023/05/11 02:26:23;;;;;;;1.88;1.02;;;;;;;13.90;70.41;99913.56;10192950;28;20046;-76
2023/05/11 02:31:28;;;;;;;2.63;0.85;;;;;;;13.81;70.62;99911.81;10185859;28;20691;-70
2023/05/11 02:36:32;;;;;;;2.47;0.73;;;;;;;13.77;70.61;99913.94;10162455;28;20086;-74
2023/05/11 02:41:39;;;;;;;2.25;0.70;;;;;;;13.80;71.05;99912.78;10164932;28;20447;-73
2023/05/11 02:46:46;;;;;;;2.00;1.00;;;;;;;13.71;70.39;99903.84;10161653;28;20118;-73
2023/05/11 02:51:49;;;;;;;2.05;0.70;;;;;;;13.77;71.03;99908.56;10164415;28;20074;-74
2023/05/11 02:56:51;;;;;;;2.53;0.73;;;;;;;13.80;71.26;99907.44;10165873;28;20052;-74
2023/05/11 03:01:53;;;;;;;1.90;1.10;;;;;;;13.78;71.23;99907.59;10166718;28;20553;-72
2023/05/11 03:06:54;;;;;;;2.05;1.00;;;;;;;13.88;71.01;99906.66;10168514;28;20111;-73
2023/05/11 03:11:57;;;;;;;1.30;0.85;;;;;;;13.87;70.52;99908.50;10173019;28;20142;-75
2023/05/11 03:17:00;;;;;;;1.92;0.80;;;;;;;13.83;71.38;99908.97;10178493;28;20079;-73
2023/05/11 03:22:03;;;;;;;0.93;0.87;;;;;;;13.79;70.42;99911.09;10177231;28;20055;-73
2023/05/11 03:27:06;;;;;;;3.00;1.13;;;;;;;13.76;71.21;99917.59;10177407;28;20106;-71
2023/05/11 03:32:08;;;;;;;2.70;1.00;;;;;;;13.70;71.34;99912.84;10167085;29;20055;-73
2023/05/11 03:37:12;;;;;;;2.67;1.10;;;;;;;13.67;71.10;99913.16;10177390;28;20047;-73
2023/05/11 03:42:14;;;;;;;2.30;0.90;;;;;;;13.60;70.82;99906.72;10174570;28;20052;-73
2023/05/11 03:47:17;;;;;;;2.78;1.05;;;;;;;13.61;70.98;99916.44;10174826;28;20062;-72
2023/05/11 03:52:20;;;;;;;1.83;0.90;;;;;;;13.56;71.19;99900.03;10177136;28;20048;-73
2023/05/11 03:57:24;;;;;;;2.05;0.93;;;;;;;13.53;70.83;99916.38;10169295;28;20060;-73
2023/05/11 04:02:26;;;;;;;;;;;;;;;13.49;71.60;99921.16;10174475;28;20844;-73
2023/05/11 04:07:28;;;;;;;1.80;0.85;;;;;;;13.56;71.41;99910.72;10172340;28;19926;-73
2023/05/11 04:12:29;;;;;;;1.10;0.68;;;;;;;13.51;71.12;99913.84;10175233;28;20044;-73
2023/05/11 04:17:31;;;;;;;5.32;1.45;;;;;;;13.39;71.49;99910.53;10190559;28;20044;-74
2023/05/11 04:22:32;;;;;;;1.50;1.27;;;;;;;13.49;72.09;99914.97;10205454;28;20142;-72
2023/05/11 04:27:34;;;;;;;2.22;1.10;;;;;;;13.49;71.98;99909.63;10175544;28;20056;-72
2023/05/11 04:32:35;;;;;;;2.20;1.30;;;;;;;13.55;71.62;99914.38;10174493;28;20090;-73
2023/05/11 04:37:37;;;;;;;1.83;0.95;;;;;;;13.57;72.17;99928.41;10179614;28;20048;-72
2023/05/11 04:42:38;;;;;;;1.48;1.02;;;;;;;13.60;72.17;99928.13;10169297;28;20062;-71
2023/05/11 04:47:39;;;;;;;1.55;1.40;;;;;;;13.57;71.53;99925.75;10180191;28;20139;-73
2023/05/11 04:52:41;;;;;;;1.52;1.13;;;;;;;13.65;72.37;99919.66;10163308;28;20883;-73
2023/05/11 04:57:42;;;;;;;2.00;1.30;;;;;;;13.70;71.69;99918.19;10174789;28;20123;-75
2023/05/11 05:02:43;;;;;;;2.70;1.40;;;;;;;13.70;71.89;99922.72;10205657;28;20059;-75
2023/05/11 05:07:45;;;;;;;2.10;1.27;;;;;;;13.77;71.93;99929.97;10151152;28;20055;-73
2023/05/11 05:12:47;;;;;;;3.33;1.30;;;;;;;13.68;72.36;99922.88;10156288;28;20142;-76
2023/05/11 05:17:49;;;;;;;3.35;1.63;;;;;;;13.80;72.30;99939.53;10151616;28;20469;-71
2023/05/11 05:22:50;;;;;;;1.98;1.48;;;;;;;13.86;72.44;99943.44;10151596;28;20426;-74
2023/05/11 05:27:52;;;;;;;5.90;1.60;;;;;;;13.91;72.10;99938.47;10146630;28;20052;-69
2023/05/11 05:32:53;;;;;;;5.18;1.40;;;;;;;13.92;71.69;99942.84;10150422;28;21548;-72
2023/05/11 05:37:55;;;;;;;3.20;1.80;;;;;;;13.99;71.86;99943.91;10152653;28;20055;-71
2023/05/11 05:42:56;;;;;;;3.83;1.85;;;;;;;14.08;71.55;99951.00;10152206;28;20059;-72
2023/05/11 05:48:00;;;;;;;3.75;1.80;;;;;;;14.12;71.91;99960.41;10146848;28;20624;-72
2023/05/11 05:53:02;;;;;;;2.67;2.10;;;;;;;14.19;71.71;99962.47;10149615;29;20051;-70
2023/05/11 05:58:03;;;;;;;3.13;2.10;;;;;;;14.23;70.52;99958.47;10142608;28;20070;-72
2023/05/11 06:03:05;;;;;;;2.30;1.90;;;;;;;14.23;71.31;99963.84;10147631;28;20047;-73
2023/05/11 06:08:06;;;;;;;2.53;2.10;;;;;;;14.28;70.91;99966.91;10151481;28;20055;-73
2023/05/11 06:13:11;;;;;;;3.38;2.45;;;;;;;14.30;71.42;99972.94;10153881;28;20075;-72
2023/05/11 06:18:13;;;;;;;2.58;2.30;;;;;;;14.31;71.33;99969.28;10148702;28;20059;-73
2023/05/11 06:23:15;;;;;;;3.72;2.45;;;;;;;14.34;70.96;99971.63;10151877;28;20074;-71
2023/05/11 06:28:17;;;;;;;4.10;2.35;;;;;;;14.36;71.22;99969.63;10148982;28;20055;-72
2023/05/11 06:33:18;;;;;;;3.78;2.10;;;;;;;14.46;71.04;99973.06;10178579;28;20106;-73
2023/05/11 06:38:19;;;;;;;3.13;2.35;;;;;;;14.48;71.11;99972.91;10158615;28;20058;-72
2023/05/11 06:43:22;;;;;;;2.83;2.63;;;;;;;14.50;71.28;99977.13;10146503;28;20142;-72
2023/05/11 06:48:24;;;;;;;4.53;2.60;;;;;;;14.56;71.53;99972.13;10148825;28;20060;-70
2023/05/11 06:53:26;;;;;;;6.22;3.30;;;;;;;14.59;71.41;99975.34;10148756;28;20450;-70
2023/05/11 06:58:27;;;;;;;7.15;3.03;;;;;;;14.68;71.20;99973.56;10147388;28;20524;-70
2023/05/11 07:03:28;;;;;;;3.45;3.10;;;;;;;14.77;71.40;99969.97;10152918;28;20056;-72
2023/05/11 07:08:30;;;;;;;4.88;4.32;;;;;;;14.92;71.93;99980.09;10150899;28;20138;-71
2023/05/11 07:13:31;;;;;;;5.65;3.90;;;;;;;14.84;72.48;99975.53;10150343;29;20066;-70
2023/05/11 07:18:32;;;;;;;7.93;4.65;;;;;;;14.96;72.14;99973.44;10145120;28;20056;-70
2023/05/11 07:23:34;;;;;;;4.88;4.35;;;;;;;15.09;72.91;99979.19;10152547;28;20538;-70
2023/05/11 07:28:36;;;;;;;8.75;5.85;;;;;;;15.20;72.17;99978.91;10145408;28;20558;-70
2023/05/11 07:33:38;;;;;;;6.43;5.82;;;;;;;14.80;74.38;99983.06;10146451;28;20075;-71
2023/05/11 07:38:39;;;;;;;6.50;5.63;;;;;;;15.01;73.84;99988.03;10141671;28;20320;-73
2023/05/11 07:43:40;;;;;;;6.53;5.95;;;;;;;15.13;73.62;99991.28;10145313;28;20131;-74
2023/05/11 07:48:42;;;;;;;7.18;6.57;;;;;;;15.08;73.14;99988.22;10142777;28;20054;-71
2023/05/11 07:53:43;;;;;;;7.68;6.22;;;;;;;15.09;73.33;99992.59;10149763;28;20106;-71
2023/05/11 07:58:45;;;;;;;7.38;6.68;;;;;;;15.17;73.25;99987.28;10151489;28;20059;-71
2023/05/11 08:03:46;;;;;;;6.70;6.10;;;;;;;15.25;73.27;99977.59;10146081;28;20423;-73
2023/05/11 08:08:48;;;;;;;8.13;6.70;;;;;;;15.31;73.00;99985.00;10150450;28;20055;-70
2023/05/11 08:13:49;;;;;;;7.70;6.68;;;;;;;15.33;72.23;99985.69;10149056;28;20711;-71
2023/05/11 08:18:50;;;;;;;7.63;6.93;;;;;;;15.37;71.77;99987.03;10145420;28;20143;-71
2023/05/11 08:23:52;;;;;;;7.40;6.70;;;;;;;15.41;71.90;99977.66;10149548;28;20043;-72
2023/05/11 08:28:53;;;;;;;9.05;7.20;;;;;;;15.47;71.70;99982.38;10148440;28;20099;-72
2023/05/11 08:33:54;;;;;;;7.20;6.53;;;;;;;15.50;71.69;99978.53;10150609;28;20545;-71
2023/05/11 08:38:56;;;;;;;7.00;5.90;;;;;;;15.56;71.45;99978.72;10148483;29;20656;-68
2023/05/11 08:44:00;;;;;;;6.35;5.55;;;;;;;15.59;71.94;99980.25;10148429;28;20471;-71
2023/05/11 08:49:02;;;;;;;7.63;6.22;;;;;;;15.62;71.30;99979.09;10149807;28;20055;-71
2023/05/11 08:54:06;;;;;;;6.93;6.25;;;;;;;15.65;71.85;99981.44;10149286;28;20067;-71
2023/05/11 08:59:07;;;;;;;7.65;5.38;;;;;;;15.65;71.84;99978.75;10147517;28;21234;-75
2023/05/11 09:04:09;;;;;;;7.20;6.15;;;;;;;15.66;71.65;99981.28;10165285;28;20066;-70
2023/05/11 09:09:11;;;;;;;7.85;6.90;;;;;;;15.60;71.75;99986.44;10147858;28;20044;-73
2023/05/11 09:14:13;;;;;;;7.18;6.43;;;;;;;15.58;71.78;99988.44;10149254;28;20060;-69
2023/05/11 09:19:15;;;;;;;7.22;6.53;;;;;;;15.56;71.84;99985.94;10146330;28;20054;-73
2023/05/11 09:24:19;;;;;;;7.20;6.57;;;;;;;15.67;72.00;99992.84;10151862;29;20888;-71
2023/05/11 09:29:20;;;;;;;7.93;7.13;;;;;;;15.72;72.02;99987.84;10144290;28;20122;-72
2023/05/11 09:34:22;;;;;;;7.60;6.90;;;;;;;15.77;71.22;99982.81;10151904;28;20065;-72
2023/05/11 09:39:28;;;;;;;6.97;6.28;;;;;;;15.85;71.54;99996.28;10177357;28;20051;-71
2023/05/11 09:44:45;;;;;;;7.75;6.50;;;;;;;15.87;71.33;99988.91;10149666;28;20058;-71
2023/05/11 09:49:47;;;;;;;6.93;6.32;;;;;;;15.87;71.36;99986.22;10150835;28;20451;-71
2023/05/11 09:54:51;;;;;;;7.68;6.97;;;;;;;15.90;71.05;99983.22;10151014;28;20579;-71
2023/05/11 09:59:55;;;;;;;6.95;6.28;;;;;;;15.93;71.34;99989.25;10148528;28;20059;-73
2023/05/11 10:04:58;;;;;;;13.13;8.03;;;;;;;15.94;70.33;99982.88;10144925;28;20078;-68
2023/05/11 10:10:00;;;;;;;8.45;7.05;;;;;;;15.99;70.27;99988.56;10145896;28;20620;-73
2023/05/11 10:15:07;;;;;;;9.27;7.70;;;;;;;16.03;70.27;99982.75;10143798;28;20579;-70
2023/05/11 10:20:09;;;;;;;7.72;6.93;;;;;;;16.10;70.23;99982.91;10143629;28;20964;-72
2023/05/11 10:25:11;;;;;;;7.55;6.70;;;;;;;16.19;70.98;99978.38;10140810;28;20052;-74
2023/05/11 10:30:13;;;;;;;9.18;7.95;;;;;;;16.24;70.51;99976.88;10137572;28;20135;-70
2023/05/11 10:35:15;;;;;;;8.65;7.55;;;;;;;16.26;71.88;99976.72;10156994;28;20426;-70
2023/05/11 10:40:16;;;;;;;8.85;7.95;;;;;;;16.33;72.16;99972.31;10166789;28;20063;-70
2023/05/11 10:45:23;;;;;;;9.07;8.18;;;;;;;16.37;72.70;99967.47;10143248;28;20581;-71
2023/05/11 10:51:04;;;;;;;9.60;8.60;;;;;;;16.47;72.21;99973.53;10142538;28;20176;-71
2023/05/11 10:56:32;;;;;;;8.85;7.88;;;;;;;16.56;70.22;99969.81;10143408;28;20052;-70
2023/05/11 11:01:38;;;;;;;9.95;8.10;;;;;;;16.60;71.39;99957.72;10134135;28;20589;-72
2023/05/11 11:06:42;;;;;;;8.27;7.57;;;;;;;16.71;70.25;99956.53;10141093;28;20051;-72
2023/05/11 11:11:45;;;;;;;10.90;9.05;;;;;;;16.74;69.24;99952.66;10141199;28;21066;-71
2023/05/11 11:17:13;;;;;;;10.55;8.50;;;;;;;16.74;69.64;99958.03;10148066;28;20097;-72
2023/05/11 11:22:33;;;;;;;9.30;8.32;;;;;;;16.84;68.01;99957.84;10134933;28;20444;-71
2023/05/11 11:27:40;;;;;;;8.68;7.88;;;;;;;16.85;68.86;99959.53;10143674;28;20208;-71
2023/05/11 11:32:42;;;;;;;8.82;7.85;;;;;;;16.72;68.70;99950.16;10149232;28;20079;-73
2023/05/11 11:38:01;;;;;;;10.23;7.95;;;;;;;16.66;69.35;99955.34;10152647;28;20821;-71
2023/05/11 11:43:18;;;;;;;9.90;7.75;;;;;;;16.60;70.49;99946.97;10149148;28;20198;-72
2023/05/11 11:48:21;;;;;;;6.90;6.20;;;;;;;16.53;71.65;99947.81;10148706;28;20059;-74
2023/05/11 11:53:39;;;;;;;7.13;6.53;;;;;;;16.59;73.71;99957.91;10180883;28;20142;-73
2023/05/11 11:58:41;;;;;;;7.40;6.72;;;;;;;16.51;72.57;99953.34;10165026;28;20055;-74
2023/05/11 12:03:45;;;;;;;7.38;6.65;;;;;;;16.38;74.71;99948.50;10156985;28;21134;-72
2023/05/11 12:08:47;;;;;;;6.47;5.97;;;;;;;16.33;75.31;99944.63;10149631;28;20673;-74
2023/05/11 12:13:49;;;;;;;7.63;6.93;;;;;;;16.33;77.46;99953.53;10175498;28;20064;-71
2023/05/11 12:18:53;;;;;;;7.00;6.30;;;;;;;16.37;78.94;99951.38;10155122;28;20521;-73
2023/05/11 12:23:57;;;;;;;7.75;7.05;;;;;;;16.31;78.59;99952.03;10145341;28;20059;-72
2023/05/11 12:29:10;;;;;;;8.13;7.32;;;;;;;16.25;79.43;99954.38;10150748;28;20047;-73
2023/05/11 12:34:21;;;;;;;7.38;6.65;;;;;;;16.20;80.55;99955.91;10142890;28;20131;-73
2023/05/11 12:39:25;;;;;;;6.30;5.80;;;;;;;16.14;80.54;99957.41;10148250;28;20044;-71
2023/05/11 12:44:26;;;;;;;9.05;7.45;;;;;;;16.08;83.11;99958.06;10152786;28;20051;-69
2023/05/11 12:49:28;;;;;;;8.18;7.40;;;;;;;16.07;83.83;99945.66;10153209;28;20051;-70
2023/05/11 12:54:36;;;;;;;7.38;6.60;;;;;;;16.04;84.84;99948.66;10150865;28;20447;-71
2023/05/11 12:59:39;;;;;;;8.30;7.40;;;;;;;16.03;85.14;99939.78;10163376;28;20506;-71
2023/05/11 13:04:41;;;;;;;8.07;7.28;;;;;;;15.98;86.31;99928.69;10151291;28;20434;-72
2023/05/11 13:09:55;;;;;;;7.80;7.00;;;;;;;16.07;85.04;99932.22;10164814;28;20106;-71
2023/05/11 13:15:06;;;;;;;8.93;8.15;;;;;;;16.00;85.45;99929.38;10155408;28;20051;-72
2023/05/11 13:20:23;;;;;;;7.70;6.90;;;;;;;16.07;84.94;99935.75;10158246;28;20214;-73
2023/05/11 13:25:24;;;;;;;8.88;8.00;;;;;;;16.14;86.81;99929.69;10153770;28;20418;-72
2023/05/11 13:30:26;;;;;;;8.50;7.80;;;;;;;16.20;86.55;99924.50;10150502;28;22749;-73
2023/05/11 13:35:28;;;;;;;8.48;7.78;;;;;;;16.26;86.63;99921.16;10147509;28;20048;-72
2023/05/11 13:40:29;;;;;;;9.57;8.77;;;;;;;16.26;83.96;99921.16;10149392;28;20497;-72
2023/05/11 13:45:30;;;;;;;8.93;8.13;;;;;;;16.28;83.57;99915.59;10151074;28;20168;-72
2023/05/11 13:50:32;;;;;;;9.15;8.32;;;;;;;16.25;85.45;99911.41;10146635;28;20168;-71
2023/05/11 13:55:37;;;;;;;8.30;7.50;;;;;;;16.29;86.73;99919.13;10149212;28;20139;-71
2023/05/11 14:00:39;;;;;;;8.00;7.05;;;;;;;16.25;86.00;99914.09;10150545;28;20051;-69
2023/05/11 14:05:40;;;;;;;9.27;8.38;;;;;;;16.30;86.59;99908.22;10154543;28;20600;-74
2023/05/11 14:10:43;;;;;;;10.48;8.25;;;;;;;16.30;86.50;99904.69;10149811;28;20058;-69
2023/05/11 14:15:44;;;;;;;9.18;8.48;;;;;;;16.31;85.72;99903.69;10149349;28;20378;-71
2023/05/11 14:20:45;;;;;;;10.15;8.93;;;;;;;16.29;85.01;99905.69;10148832;28;20122;-70
2023/05/11 14:25:47;;;;;;;9.38;8.57;;;;;;;15.99;86.84;99900.00;10148438;28;20165;-69
2023/05/11 14:30:48;;;;;;;8.25;7.05;;;;;;;16.08;85.77;99907.06;10156648;28;20134;-71
2023/05/11 14:35:51;;;;;;;6.57;5.97;;;;;;;16.11;86.20;99906.72;10149192;28;20103;-69
2023/05/11 14:40:52;;;;;;;6.40;5.80;;;;;;;16.10;83.48;99907.72;10152610;28;20075;-70
2023/05/11 14:45:54;;;;;;;7.50;6.00;;;;;;;16.16;84.62;99906.22;10158393;28;20441;-68
2023/05/11 14:50:56;;;;;;;6.03;5.43;;;;;;;16.19;83.03;99901.34;10148253;28;20403;-70
2023/05/11 14:55:59;;;;;;;5.68;5.10;;;;;;;16.21;82.38;99899.34;10144286;28;20736;-70
2023/05/11 15:01:00;;;;;;;5.07;4.65;;;;;;;16.22;80.19;99908.22;10149843;28;21432;-72
2023/05/11 15:06:03;;;;;;;4.78;4.38;;;;;;;16.22;79.99;99906.38;10154790;28;20081;-69
2023/05/11 15:11:04;;;;;;;4.50;4.10;;;;;;;16.10;78.67;99905.03;10159928;28;20514;-72
2023/05/11 15:16:05;;;;;;;5.25;4.75;;;;;;;16.00;81.76;99901.69;10162494;28;20238;-75
2023/05/11 15:21:07;;;;;;;4.97;4.50;;;;;;;16.06;82.07;99901.00;10158603;28;20059;-72
2023/05/11 15:26:08;;;;;;;4.03;3.20;;;;;;;16.10;80.62;99896.16;10156753;28;20052;-69
2023/05/11 15:31:10;;;;;;;3.95;3.60;;;;;;;16.10;81.65;99899.66;10154588;28;20067;-70
2023/05/11 15:36:13;;;;;;;4.43;4.03;;;;;;;16.10;81.99;99904.22;10149596;28;20071;-68
2023/05/11 15:41:15;;;;;;;3.55;3.25;;;;;;;16.11;80.17;99896.00;10151919;28;20056;-72
2023/05/11 15:46:16;;;;;;;3.97;3.58;;;;;;;16.09;81.09;99900.66;10150779;28;20540;-71
2023/05/11 15:51:18;;;;;;;4.95;4.55;;;;;;;16.10;80.79;99896.97;10151995;28;20071;-69
2023/05/11 15:56:19;;;;;;;5.10;4.50;;;;;;;16.07;77.53;99902.69;10150125;28;20126;-68
2023/05/11 16:01:21;;;;;;;4.35;4.03;;;;;;;16.05;82.45;99902.03;10148516;29;20059;-71
2023/05/11 16:06:22;;;;;;;5.25;4.75;;;;;;;16.07;82.96;99897.31;10149500;28;20123;-71
2023/05/11 16:11:24;;;;;;;4.50;3.95;;;;;;;16.07;82.01;99906.22;10150338;28;20051;-71
2023/05/11 16:16:26;;;;;;;6.13;5.53;;;;;;;16.06;81.99;99892.94;10155610;28;20059;-71
2023/05/11 16:21:27;;;;;;;5.57;5.05;;;;;;;16.09;81.46;99889.94;10149155;28;20163;-71
2023/05/11 16:26:29;;;;;;;5.20;4.80;;;;;;;16.06;82.08;99895.63;10144002;28;20056;-72
2023/05/11 16:31:31;;;;;;;6.38;5.78;;;;;;;16.05;81.99;99900.19;10150399;28;20052;-71
2023/05/11 16:36:33;;;;;;;6.38;5.80;;;;;;;16.05;82.95;99891.28;10148309;28;20138;-70
2023/05/11 16:41:34;;;;;;;6.22;5.63;;;;;;;16.07;83.66;99898.16;10148053;28;20046;-69
2023/05/11 16:46:35;;;;;;;6.43;5.78;;;;;;;16.03;83.10;99887.91;10150546;28;20052;-70
2023/05/11 16:51:37;;;;;;;7.15;6.45;;;;;;;16.03;84.23;99890.59;10148313;28;20103;-70
2023/05/11 16:56:38;;;;;;;6.38;5.78;;;;;;;16.00;83.56;99885.56;10152737;28;20143;-71
2023/05/11 17:01:40;;;;;;;7.07;6.38;;;;;;;16.00;83.11;99885.56;10170047;28;20545;-70
2023/05/11 17:06:42;;;;;;;7.03;6.43;;;;;;;15.96;84.49;99890.44;10147499;28;20589;-68
2023/05/11 17:11:43;;;;;;;7.55;6.85;;;;;;;15.96;84.88;99884.22;10150596;29;20543;-70
2023/05/11 17:16:45;;;;;;;6.68;6.07;;;;;;;15.96;85.44;99894.97;10150450;28;20050;-71
2023/05/11 17:21:46;;;;;;;7.03;6.32;;;;;;;15.93;85.89;99890.78;10149079;28;20051;-70
2023/05/11 17:26:48;;;;;;;7.32;6.65;;;;;;;15.90;86.76;99888.44;10145496;28;20077;-71
2023/05/11 17:31:50;;;;;;;7.15;6.55;;;;;;;15.90;86.41;99893.81;10148423;28;20095;-71
2023/05/11 17:36:52;;;;;;;8.32;7.53;;;;;;;15.87;85.89;99900.34;10150144;28;20558;-72
2023/05/11 17:41:54;;;;;;;6.88;6.28;;;;;;;15.83;86.06;99898.97;10153353;28;20060;-69
2023/05/11 17:46:55;;;;;;;6.18;5.65;;;;;;;15.79;85.89;99894.94;10153090;28;20058;-72
2023/05/11 17:51:57;;;;;;;6.95;6.25;;;;;;;15.77;85.49;99896.09;10152200;28;20056;-72
2023/05/11 17:56:59;;;;;;;4.30;3.90;;;;;;;15.77;84.46;99901.47;10150072;28;20496;-69
2023/05/11 18:02:00;;;;;;;4.20;3.80;;;;;;;15.74;85.37;99903.47;10151919;28;20051;-72
2023/05/11 18:07:02;;;;;;;4.35;3.97;;;;;;;15.68;85.31;99906.00;10154557;28;20059;-72
2023/05/11 18:12:04;;;;;;;5.30;3.35;;;;;;;15.65;84.91;99903.63;10170518;29;20433;-71
2023/05/11 18:17:06;;;;;;;2.75;2.47;;;;;;;15.64;86.38;99910.00;10152485;28;22694;-69
2023/05/11 18:22:07;;;;;;;4.13;2.30;;;;;;;15.61;83.82;99915.69;10150700;28;20075;-72
2023/05/11 18:27:09;;;;;;;3.72;2.05;;;;;;;15.54;84.07;99913.66;10148899;28;20086;-72
2023/05/11 18:32:10;;;;;;;1.80;1.63;;;;;;;15.55;85.62;99918.03;10146706;28;20075;-70
2023/05/11 18:37:11;;;;;;;3.95;2.88;;;;;;;15.51;86.07;99914.00;10148736;28;20055;-72
2023/05/11 18:42:13;;;;;;;3.10;2.50;;;;;;;15.48;85.55;99914.31;10149377;28;20138;-72
2023/05/11 18:47:14;;;;;;;2.95;2.63;;;;;;;15.43;86.10;99913.97;10161042;28;20079;-72
2023/05/11 18:52:15;;;;;;;2.88;2.30;;;;;;;15.47;85.30;99918.00;10164215;28;20146;-73
2023/05/11 18:57:19;;;;;;;2.83;2.45;;;;;;;15.38;84.89;99919.00;10149743;28;20079;-71
2023/05/11 19:02:21;;;;;;;4.32;3.92;;;;;;;15.30;82.85;99925.16;10146751;28;20063;-73
2023/05/11 19:07:22;;;;;;;3.00;2.80;;;;;;;15.22;86.73;99918.94;10176274;28;20064;-74
2023/05/11 19:12:23;;;;;;;4.32;2.78;;;;;;;15.27;86.05;99932.72;10152400;28;20494;-71
2023/05/11 19:17:25;;;;;;;5.05;4.65;;;;;;;15.30;85.25;99938.56;10162068;28;20052;-74
2023/05/11 19:22:26;;;;;;;5.55;4.90;;;;;;;15.20;87.38;99943.22;10152848;28;20059;-74
2023/05/11 19:27:28;;;;;;;3.70;3.30;;;;;;;15.20;87.77;99938.69;10141589;28;20322;-72
2023/05/11 19:32:29;;;;;;;4.68;3.10;;;;;;;15.21;88.86;99939.56;10148017;28;20055;-72
2023/05/11 19:37:31;;;;;;;4.70;3.45;;;;;;;15.23;87.90;99942.91;10146478;28;20123;-71
2023/05/11 19:42:32;;;;;;;4.13;3.28;;;;;;;15.25;88.33;99945.41;10152683;28;20055;-73
2023/05/11 19:47:40;;;;;;;5.03;3.72;;;;;;;15.20;89.64;99949.41;10149457;28;20561;-69
2023/05/11 19:52:41;;;;;;;4.47;3.42;;;;;;;15.17;89.34;99949.75;10152978;28;20064;-68
2023/05/11 19:57:43;;;;;;;3.47;3.17;;;;;;;15.18;89.18;99955.97;10148598;28;20052;-72
2023/05/11 20:02:45;;;;;;;4.68;3.30;;;;;;;15.16;89.01;99958.81;10152400;28;20047;-71
2023/05/11 20:07:46;;;;;;;3.60;3.30;;;;;;;15.15;89.39;99951.75;10165370;28;20066;-69
2023/05/11 20:12:48;;;;;;;4.72;3.45;;;;;;;15.13;89.47;99961.81;10149357;28;20060;-71
2023/05/11 20:17:50;;;;;;;3.30;3.00;;;;;;;15.10;89.95;99959.44;10149870;28;20062;-71
2023/05/11 20:22:51;;;;;;;3.35;2.90;;;;;;;15.11;89.73;99954.91;10154685;28;20496;-75
2023/05/11 20:27:52;;;;;;;4.05;3.08;;;;;;;15.13;89.90;99945.72;10148701;28;20068;-75
2023/05/11 20:32:54;;;;;;;4.47;3.05;;;;;;;15.11;89.55;99949.56;10150718;28;20052;-73
2023/05/11 20:37:58;;;;;;;4.10;3.20;;;;;;;15.12;89.70;99953.94;10155635;28;20057;-74
2023/05/11 20:43:00;;;;;;;3.33;2.85;;;;;;;15.08;89.59;99942.66;10156264;28;20123;-71
2023/05/11 20:48:01;;;;;;;3.22;2.92;;;;;;;15.10;89.30;99945.19;10154398;28;20056;-74
2023/05/11 20:53:03;;;;;;;3.85;3.42;;;;;;;15.10;89.37;99938.00;10150165;28;20204;-77
2023/05/11 20:58:04;;;;;;;2.60;2.40;;;;;;;15.07;89.74;99934.78;10156102;28;20059;-73
2023/05/11 21:03:05;;;;;;;3.72;3.33;;;;;;;15.03;90.16;99936.97;10151673;28;20203;-72
2023/05/11 21:08:07;;;;;;;3.50;3.20;;;;;;;15.04;90.64;99925.22;10153543;28;20519;-74
2023/05/11 21:13:09;;;;;;;5.10;3.65;;;;;;;14.97;90.25;99932.25;10150984;28;20061;-73
2023/05/11 21:18:11;;;;;;;3.50;3.20;;;;;;;14.94;90.87;99930.72;10152224;28;20355;-73
2023/05/11 21:23:13;;;;;;;3.67;3.08;;;;;;;14.93;89.63;99920.16;10150519;28;20092;-72
2023/05/11 21:28:14;;;;;;;3.22;2.90;;;;;;;14.85;91.10;99916.44;10152026;28;20138;-70
2023/05/11 21:33:15;;;;;;;3.42;3.10;;;;;;;14.88;90.59;99915.28;10145595;28;20449;-72
2023/05/11 21:38:18;;;;;;;3.88;3.10;;;;;;;14.89;91.40;99911.56;10145364;29;20058;-70
2023/05/11 21:43:19;;;;;;;5.13;3.15;;;;;;;14.85;90.84;99905.72;10145795;28;20078;-69
2023/05/11 21:48:21;;;;;;;3.55;2.50;;;;;;;14.85;91.00;99902.19;10153939;28;20115;-70
2023/05/11 21:53:22;;;;;;;4.18;3.35;;;;;;;14.80;91.17;99902.69;10150505;28;20418;-70
2023/05/11 21:58:24;;;;;;;3.47;3.17;;;;;;;14.82;91.77;99911.38;10148979;28;20558;-70
2023/05/11 22:03:28;;;;;;;4.43;3.35;;;;;;;14.80;91.95;99904.50;10148389;28;20174;-71
2023/05/11 22:08:30;;;;;;;3.17;2.88;;;;;;;14.80;92.53;99904.50;10150895;28;20133;-71
2023/05/11 22:13:31;;;;;;;3.65;3.25;;;;;;;14.84;91.88;99906.69;10151384;28;20082;-72
2023/05/11 22:18:32;;;;;;;3.90;3.45;;;;;;;14.77;92.39;99907.50;10157056;28;20434;-70
2023/05/11 22:23:34;;;;;;;4.75;4.25;;;;;;;14.75;92.25;99893.44;10150831;28;20055;-74
2023/05/11 22:28:36;;;;;;;5.05;4.30;;;;;;;14.77;92.63;99899.47;10149793;28;20333;-72
2023/05/11 22:33:37;;;;;;;5.20;3.85;;;;;;;14.77;92.54;99902.13;10160817;28;20051;-71
2023/05/11 22:38:38;;;;;;;6.50;5.40;;;;;;;14.78;91.30;99907.34;10168629;28;20052;-70
2023/05/11 22:43:40;;;;;;;6.68;4.78;;;;;;;14.74;92.69;99905.13;10160298;28;20531;-67
2023/05/11 22:48:41;;;;;;;5.72;4.90;;;;;;;14.72;92.90;99904.47;10164488;28;20139;-70
2023/05/11 22:53:44;;;;;;;6.00;5.45;;;;;;;14.72;92.65;99918.69;10161038;28;20051;-70
2023/05/11 22:58:45;;;;;;;7.43;6.05;;;;;;;14.72;93.77;99902.63;10168550;28;20052;-69
2023/05/11 23:03:46;;;;;;;7.45;6.60;;;;;;;14.74;93.53;99916.72;10167165;28;20091;-69
2023/05/11 23:08:48;;;;;;;7.80;7.03;;;;;;;14.67;93.28;99908.44;10159853;28;20107;-73
2023/05/11 23:13:49;;;;;;;7.30;6.60;;;;;;;14.64;92.65;99913.31;10167367;28;20426;-70
2023/05/11 23:18:50;;;;;;;7.80;5.82;;;;;;;14.63;93.28;99911.63;10165218;28;20102;-70
2023/05/11 23:23:52;;;;;;;7.53;6.35;;;;;;;14.66;94.55;99903.25;10169309;28;20059;-72
2023/05/11 23:28:53;;;;;;;6.22;5.63;;;;;;;14.62;93.48;99893.84;10172313;28;20056;-71